createdAt,value
2017-04-05T00:00:15.508Z,3.7
2017-04-05T00:00:34.163Z,3.7
2017-04-05T00:00:52.798Z,3.8
2017-04-05T00:01:11.432Z,3.8
2017-04-05T00:01:30.075Z,3.8
2017-04-05T00:01:48.718Z,3.8
2017-04-05T00:02:07.352Z,3.8
2017-04-05T00:02:25.989Z,3.8
2017-04-05T00:02:44.625Z,3.8
2017-04-05T00:03:03.263Z,3.8
2017-04-05T00:03:21.894Z,3.8
2017-04-05T00:03:40.547Z,3.9
2017-04-05T00:03:59.185Z,3.9
2017-04-05T00:04:17.823Z,3.9
2017-04-05T00:04:36.456Z,3.9
2017-04-05T00:04:55.097Z,4
2017-04-05T00:05:13.735Z,4
2017-04-05T00:05:32.370Z,4
2017-04-05T00:05:51.016Z,4
2017-04-05T00:06:09.652Z,4.1
2017-04-05T00:06:28.289Z,4.1
2017-04-05T00:06:46.929Z,4.1
2017-04-05T00:07:05.581Z,4.1
2017-04-05T00:07:24.215Z,4.2
2017-04-05T00:07:42.858Z,4.2
2017-04-05T00:08:01.490Z,4.2
2017-04-05T00:08:20.150Z,4.2
2017-04-05T00:08:38.789Z,4.2
2017-04-05T00:08:57.431Z,4.2
2017-04-05T00:09:16.068Z,4.2
2017-04-05T00:09:34.705Z,4.2
2017-04-05T00:09:53.338Z,4.2
2017-04-05T00:10:12.003Z,4.2
2017-04-05T00:10:30.672Z,4.2
2017-04-05T00:10:49.315Z,4.2
2017-04-05T00:11:07.961Z,4.2
2017-04-05T00:11:26.607Z,4.1
2017-04-05T00:11:45.249Z,4.1
2017-04-05T00:12:03.889Z,4.1
2017-04-05T00:12:22.527Z,4.1
2017-04-05T00:12:41.163Z,4.1
2017-04-05T00:12:59.799Z,4
2017-04-05T00:13:18.437Z,4
2017-04-05T00:13:37.076Z,4
2017-04-05T00:13:55.742Z,4
2017-04-05T00:14:14.379Z,4
2017-04-05T00:14:33.014Z,4
2017-04-05T00:14:51.650Z,4
2017-04-05T00:15:10.285Z,4
2017-04-05T00:15:28.925Z,4
2017-04-05T00:15:47.561Z,3.9
2017-04-05T00:16:06.200Z,3.9
2017-04-05T00:16:24.834Z,3.9
2017-04-05T00:16:43.474Z,3.9
2017-04-05T00:17:02.110Z,3.9
2017-04-05T00:17:20.765Z,3.9
2017-04-05T00:17:39.396Z,3.9
2017-04-05T00:17:58.045Z,3.9
2017-04-05T00:18:16.684Z,3.9
2017-04-05T00:18:35.323Z,3.9
2017-04-05T00:18:53.993Z,3.9
2017-04-05T00:19:12.641Z,3.9
2017-04-05T00:19:31.275Z,3.9
2017-04-05T00:19:49.916Z,3.9
2017-04-05T00:20:08.551Z,3.9
2017-04-05T00:20:27.189Z,3.8
2017-04-05T00:20:45.852Z,3.8
2017-04-05T00:21:04.496Z,3.8
2017-04-05T00:21:23.136Z,3.8
2017-04-05T00:21:41.773Z,3.8
2017-04-05T00:22:00.428Z,3.8
2017-04-05T00:22:19.078Z,3.8
2017-04-05T00:22:37.718Z,3.8
2017-04-05T00:22:56.352Z,3.8
2017-04-05T00:23:14.988Z,3.8
2017-04-05T00:23:33.651Z,3.8
2017-04-05T00:23:52.283Z,3.8
2017-04-05T00:24:10.915Z,3.8
2017-04-05T00:24:29.555Z,3.8
2017-04-05T00:24:48.190Z,3.8
2017-04-05T00:25:06.833Z,3.7
2017-04-05T00:25:25.490Z,3.7
2017-04-05T00:25:44.130Z,3.7
2017-04-05T00:26:02.775Z,3.7
2017-04-05T00:26:21.416Z,3.7
2017-04-05T00:26:40.051Z,3.8
2017-04-05T00:26:58.691Z,3.7
2017-04-05T00:27:17.324Z,3.7
2017-04-05T00:27:35.956Z,3.8
2017-04-05T00:27:54.588Z,3.8
2017-04-05T00:28:13.228Z,3.8
2017-04-05T00:28:31.873Z,3.8
2017-04-05T00:28:50.531Z,3.8
2017-04-05T00:29:09.168Z,3.8
2017-04-05T00:29:27.805Z,3.8
2017-04-05T00:29:46.439Z,3.8
2017-04-05T00:30:05.071Z,3.8
2017-04-05T00:30:23.708Z,3.9
2017-04-05T00:30:42.344Z,3.9
2017-04-05T00:31:00.985Z,4
2017-04-05T00:31:19.640Z,4
2017-04-05T00:31:38.281Z,4
2017-04-05T00:31:56.925Z,4
2017-04-05T00:32:15.586Z,4
2017-04-05T00:32:34.218Z,4.1
2017-04-05T00:32:52.852Z,4.1
2017-04-05T00:33:11.484Z,4.1
2017-04-05T00:33:30.124Z,4.1
2017-04-05T00:33:48.767Z,4.1
2017-04-05T00:34:07.406Z,4.1
2017-04-05T00:34:26.035Z,4.1
2017-04-05T00:34:44.666Z,4.2
2017-04-05T00:35:03.297Z,4.2
2017-04-05T00:35:21.934Z,4.2
2017-04-05T00:35:40.602Z,4.2
2017-04-05T00:35:59.240Z,4.2
2017-04-05T00:36:17.882Z,4.3
2017-04-05T00:36:36.539Z,4.3
2017-04-05T00:36:55.179Z,4.3
2017-04-05T00:37:13.819Z,4.3
2017-04-05T00:37:32.455Z,4.3
2017-04-05T00:37:51.092Z,4.3
2017-04-05T00:38:09.727Z,4.4
2017-04-05T00:38:28.365Z,4.4
2017-04-05T00:38:47.012Z,4.4
2017-04-05T00:39:05.676Z,4.4
2017-04-05T00:39:24.310Z,4.4
2017-04-05T00:39:42.947Z,4.4
2017-04-05T00:40:01.587Z,4.5
2017-04-05T00:40:20.226Z,4.5
2017-04-05T00:40:38.879Z,4.5
2017-04-05T00:40:57.510Z,4.5
2017-04-05T00:41:16.150Z,4.5
2017-04-05T00:41:34.785Z,4.5
2017-04-05T00:41:53.445Z,4.6
2017-04-05T00:42:12.082Z,4.6
2017-04-05T00:42:30.727Z,4.6
2017-04-05T00:42:49.365Z,4.6
2017-04-05T00:43:07.999Z,4.6
2017-04-05T00:43:26.631Z,4.6
2017-04-05T00:43:45.262Z,4.6
2017-04-05T00:44:03.933Z,4.6
2017-04-05T00:44:22.580Z,4.6
2017-04-05T00:44:41.222Z,4.6
2017-04-05T00:44:59.860Z,4.6
2017-04-05T00:45:18.495Z,4.7
2017-04-05T00:45:37.135Z,4.7
2017-04-05T00:45:55.776Z,4.7
2017-04-05T00:46:14.413Z,4.7
2017-04-05T00:46:33.048Z,4.7
2017-04-05T00:46:51.686Z,4.8
2017-04-05T00:47:10.364Z,4.8
2017-04-05T00:47:29.005Z,4.8
2017-04-05T00:47:47.641Z,4.8
2017-04-05T00:48:06.275Z,4.8
2017-04-05T00:48:24.909Z,4.8
2017-04-05T00:48:43.546Z,4.8
2017-04-05T00:49:02.184Z,4.8
2017-04-05T00:49:20.829Z,4.8
2017-04-05T00:49:39.474Z,4.8
2017-04-05T00:49:58.122Z,4.8
2017-04-05T00:50:16.756Z,4.8
2017-04-05T00:50:35.413Z,4.8
2017-04-05T00:50:54.056Z,4.9
2017-04-05T00:51:12.690Z,4.9
2017-04-05T00:51:31.332Z,4.9
2017-04-05T00:51:49.966Z,4.9
2017-04-05T00:52:08.609Z,4.9
2017-04-05T00:52:27.252Z,4.9
2017-04-05T00:52:45.889Z,4.9
2017-04-05T00:53:04.528Z,4.9
2017-04-05T00:53:23.166Z,4.9
2017-04-05T00:53:41.830Z,4.9
2017-04-05T00:54:00.515Z,4.9
2017-04-05T00:54:19.154Z,4.9
2017-04-05T00:54:37.794Z,4.9
2017-04-05T00:54:56.434Z,4.9
2017-04-05T00:55:15.071Z,4.9
2017-04-05T00:55:33.705Z,4.9
2017-04-05T00:55:52.349Z,4.9
2017-04-05T00:56:10.985Z,4.8
2017-04-05T00:56:29.618Z,4.8
2017-04-05T00:56:48.252Z,4.8
2017-04-05T00:57:06.893Z,4.8
2017-04-05T00:57:25.556Z,4.8
2017-04-05T00:57:44.222Z,4.8
2017-04-05T00:58:02.865Z,4.8
2017-04-05T00:58:21.509Z,4.8
2017-04-05T00:58:40.152Z,4.8
2017-04-05T00:58:58.823Z,4.8
2017-04-05T00:59:17.463Z,4.8
2017-04-05T00:59:36.097Z,4.8
2017-04-05T00:59:54.728Z,4.8
2017-04-05T01:00:13.380Z,4.8
2017-04-05T01:00:32.018Z,4.8
2017-04-05T01:00:50.656Z,4.8
2017-04-05T01:01:09.292Z,4.8
2017-04-05T01:01:27.935Z,4.8
2017-04-05T01:01:46.581Z,4.8
2017-04-05T01:02:05.231Z,4.8
2017-04-05T01:02:23.890Z,4.8
2017-04-05T01:02:42.522Z,4.8
2017-04-05T01:03:01.194Z,4.8
2017-04-05T01:03:19.824Z,4.8
2017-04-05T01:03:38.459Z,4.8
2017-04-05T01:03:57.092Z,4.8
2017-04-05T01:04:15.731Z,4.8
2017-04-05T01:04:34.370Z,4.8
2017-04-05T01:04:53.007Z,4.8
2017-04-05T01:05:11.642Z,4.9
2017-04-05T01:05:30.296Z,4.9
2017-04-05T01:05:48.938Z,4.9
2017-04-05T01:06:07.585Z,4.9
2017-04-05T01:06:26.219Z,4.9
2017-04-05T01:06:44.867Z,4.9
2017-04-05T01:07:03.501Z,4.9
2017-04-05T01:07:22.141Z,4.9
2017-04-05T01:07:40.777Z,4.9
2017-04-05T01:07:59.410Z,4.9
2017-04-05T01:08:18.064Z,4.9
2017-04-05T01:08:36.704Z,4.9
2017-04-05T01:08:55.364Z,4.9
2017-04-05T01:09:14.026Z,4.9
2017-04-05T01:09:32.663Z,4.9
2017-04-05T01:09:51.310Z,4.9
2017-04-05T01:10:09.949Z,5
2017-04-05T01:10:28.587Z,5
2017-04-05T01:10:47.220Z,5
2017-04-05T01:11:05.854Z,5
2017-04-05T01:11:24.491Z,5
2017-04-05T01:11:43.129Z,5
2017-04-05T01:12:01.763Z,5
2017-04-05T01:12:20.430Z,5
2017-04-05T01:12:39.064Z,5
2017-04-05T01:12:57.704Z,5
2017-04-05T01:13:16.347Z,5
2017-04-05T01:13:34.994Z,5
2017-04-05T01:13:53.633Z,5
2017-04-05T01:14:12.272Z,5
2017-04-05T01:14:30.900Z,5
2017-04-05T01:14:49.541Z,5
2017-04-05T01:15:08.174Z,5
2017-04-05T01:15:26.808Z,5
2017-04-05T01:15:45.465Z,5.1
2017-04-05T01:16:04.106Z,5.1
2017-04-05T01:16:22.749Z,5.1
2017-04-05T01:16:41.388Z,5.1
2017-04-05T01:17:00.025Z,5
2017-04-05T01:17:18.656Z,5
2017-04-05T01:17:37.288Z,5
2017-04-05T01:17:55.929Z,5
2017-04-05T01:18:14.564Z,5
2017-04-05T01:18:33.204Z,5
2017-04-05T01:18:51.861Z,5
2017-04-05T01:19:10.524Z,5
2017-04-05T01:19:29.165Z,5
2017-04-05T01:19:47.800Z,5.1
2017-04-05T01:20:06.436Z,5.1
2017-04-05T01:20:25.065Z,5.1
2017-04-05T01:20:43.738Z,5.1
2017-04-05T01:21:02.373Z,5.1
2017-04-05T01:21:21.010Z,5.1
2017-04-05T01:21:39.644Z,5.1
2017-04-05T01:21:58.282Z,5.1
2017-04-05T01:22:16.917Z,5.1
2017-04-05T01:22:35.556Z,5
2017-04-05T01:22:54.190Z,5
2017-04-05T01:23:12.826Z,5
2017-04-05T01:23:31.462Z,5
2017-04-05T01:23:50.096Z,5
2017-04-05T01:24:08.786Z,5
2017-04-05T01:24:27.428Z,5
2017-04-05T01:24:46.057Z,5
2017-04-05T01:25:04.700Z,5
2017-04-05T01:25:23.338Z,5
2017-04-05T01:25:41.977Z,5
2017-04-05T01:26:00.607Z,5
2017-04-05T01:26:19.245Z,5
2017-04-05T01:26:37.889Z,5
2017-04-05T01:26:56.527Z,5
2017-04-05T01:27:15.183Z,4.9
2017-04-05T01:27:33.825Z,4.9
2017-04-05T01:27:52.456Z,4.9
2017-04-05T01:28:11.091Z,4.9
2017-04-05T01:28:29.731Z,4.9
2017-04-05T01:28:48.366Z,4.9
2017-04-05T01:29:07.003Z,4.9
2017-04-05T01:29:25.661Z,4.9
2017-04-05T01:29:44.296Z,5
2017-04-05T01:30:02.931Z,4.9
2017-04-05T01:30:21.565Z,4.9
2017-04-05T01:30:40.230Z,4.9
2017-04-05T01:30:58.867Z,4.9
2017-04-05T01:31:17.499Z,4.9
2017-04-05T01:31:36.133Z,4.8
2017-04-05T01:31:54.765Z,4.8
2017-04-05T01:32:13.396Z,4.8
2017-04-05T01:32:32.030Z,4.8
2017-04-05T01:32:50.665Z,4.8
2017-04-05T01:33:09.301Z,4.8
2017-04-05T01:33:27.936Z,4.8
2017-04-05T01:33:46.575Z,4.7
2017-04-05T01:34:05.226Z,4.7
2017-04-05T01:34:23.870Z,4.7
2017-04-05T01:34:42.519Z,4.6
2017-04-05T01:35:01.157Z,4.6
2017-04-05T01:35:19.794Z,4.6
2017-04-05T01:35:38.435Z,4.6
2017-04-05T01:35:57.075Z,4.6
2017-04-05T01:36:15.710Z,4.6
2017-04-05T01:36:34.343Z,4.6
2017-04-05T01:36:52.988Z,4.5
2017-04-05T01:37:11.634Z,4.5
2017-04-05T01:37:30.298Z,4.5
2017-04-05T01:37:48.933Z,4.5
2017-04-05T01:38:07.567Z,4.5
2017-04-05T01:38:26.203Z,4.5
2017-04-05T01:38:44.843Z,4.4
2017-04-05T01:39:03.489Z,4.5
2017-04-05T01:39:22.125Z,4.5
2017-04-05T01:39:40.787Z,4.5
2017-04-05T01:39:59.449Z,4.5
2017-04-05T01:40:18.084Z,4.5
2017-04-05T01:40:36.729Z,4.5
2017-04-05T01:40:55.391Z,4.5
2017-04-05T01:41:14.033Z,4.5
2017-04-05T01:41:32.666Z,4.5
2017-04-05T01:41:51.304Z,4.5
2017-04-05T01:42:09.940Z,4.5
2017-04-05T01:42:28.580Z,4.5
2017-04-05T01:42:47.221Z,4.5
2017-04-05T01:43:05.863Z,4.6
2017-04-05T01:43:24.497Z,4.6
2017-04-05T01:43:43.137Z,4.6
2017-04-05T01:44:01.766Z,4.6
2017-04-05T01:44:20.423Z,4.7
2017-04-05T01:44:39.055Z,4.7
2017-04-05T01:44:57.691Z,4.7
2017-04-05T01:45:16.332Z,4.7
2017-04-05T01:45:34.969Z,4.7
2017-04-05T01:45:53.653Z,4.7
2017-04-05T01:46:12.284Z,4.7
2017-04-05T01:46:30.918Z,4.8
2017-04-05T01:46:49.554Z,4.8
2017-04-05T01:47:08.191Z,4.8
2017-04-05T01:47:26.825Z,4.8
2017-04-05T01:47:45.464Z,4.8
2017-04-05T01:48:04.104Z,4.8
2017-04-05T01:48:22.739Z,4.8
2017-04-05T01:48:41.378Z,4.8
2017-04-05T01:49:00.034Z,4.9
2017-04-05T01:49:18.690Z,4.9
2017-04-05T01:49:37.324Z,4.9
2017-04-05T01:49:55.955Z,4.9
2017-04-05T01:50:14.594Z,4.9
2017-04-05T01:50:33.263Z,4.9
2017-04-05T01:50:51.899Z,4.9
2017-04-05T01:51:10.535Z,4.9
2017-04-05T01:51:29.171Z,5
2017-04-05T01:51:47.808Z,5
2017-04-05T01:52:06.444Z,5
2017-04-05T01:52:25.092Z,5
2017-04-05T01:52:43.728Z,5
2017-04-05T01:53:02.365Z,5
2017-04-05T01:53:21.024Z,5
2017-04-05T01:53:39.657Z,5
2017-04-05T01:53:58.290Z,5
2017-04-05T01:54:16.921Z,5
2017-04-05T01:54:35.557Z,5
2017-04-05T01:54:54.219Z,5
2017-04-05T01:55:12.851Z,5
2017-04-05T01:55:31.486Z,5
2017-04-05T01:55:50.150Z,5
2017-04-05T01:56:08.794Z,5
2017-04-05T01:56:27.433Z,5
2017-04-05T01:56:46.071Z,5
2017-04-05T01:57:04.709Z,5
2017-04-05T01:57:23.340Z,5
2017-04-05T01:57:41.981Z,4.9
2017-04-05T01:58:00.614Z,4.9
2017-04-05T01:58:19.247Z,4.9
2017-04-05T01:58:37.885Z,4.9
2017-04-05T01:58:56.514Z,4.9
2017-04-05T01:59:15.172Z,4.8
2017-04-05T01:59:33.813Z,4.8
2017-04-05T01:59:52.452Z,4.9
2017-04-05T02:00:11.089Z,4.8
2017-04-05T02:00:29.727Z,4.8
2017-04-05T02:00:48.367Z,4.8
2017-04-05T02:01:07.031Z,4.8
2017-04-05T02:01:25.666Z,4.8
2017-04-05T02:01:44.294Z,4.8
2017-04-05T02:02:02.927Z,4.8
2017-04-05T02:02:21.563Z,4.8
2017-04-05T02:02:40.226Z,4.8
2017-04-05T02:02:58.856Z,4.8
2017-04-05T02:03:17.493Z,4.8
2017-04-05T02:03:36.135Z,4.8
2017-04-05T02:03:54.773Z,4.8
2017-04-05T02:04:13.418Z,4.8
2017-04-05T02:04:32.057Z,4.8
2017-04-05T02:04:50.692Z,4.8
2017-04-05T02:05:09.334Z,4.8
2017-04-05T02:05:27.967Z,4.8
2017-04-05T02:05:46.604Z,4.9
2017-04-05T02:06:05.270Z,4.9
2017-04-05T02:06:23.913Z,4.9
2017-04-05T02:06:42.551Z,4.9
2017-04-05T02:07:01.184Z,4.9
2017-04-05T02:07:19.826Z,4.9
2017-04-05T02:07:38.454Z,4.9
2017-04-05T02:07:57.089Z,5
2017-04-05T02:08:15.722Z,5
2017-04-05T02:08:34.355Z,5
2017-04-05T02:08:52.989Z,5
2017-04-05T02:09:11.624Z,5
2017-04-05T02:09:30.292Z,5
2017-04-05T02:09:48.935Z,5
2017-04-05T02:10:07.600Z,5
2017-04-05T02:10:26.239Z,5
2017-04-05T02:10:44.876Z,5
2017-04-05T02:11:03.548Z,5
2017-04-05T02:11:22.189Z,5
2017-04-05T02:11:40.853Z,5
2017-04-05T02:11:59.482Z,5
2017-04-05T02:12:18.113Z,5
2017-04-05T02:12:36.748Z,5
2017-04-05T02:12:55.383Z,5
2017-04-05T02:13:14.021Z,5
2017-04-05T02:13:32.659Z,5
2017-04-05T02:13:51.300Z,5
2017-04-05T02:14:09.950Z,5
2017-04-05T02:14:28.603Z,5
2017-04-05T02:14:47.239Z,5
2017-04-05T02:15:05.880Z,5
2017-04-05T02:15:24.515Z,5
2017-04-05T02:15:43.158Z,5
2017-04-05T02:16:01.795Z,5
2017-04-05T02:16:20.429Z,5
2017-04-05T02:16:39.065Z,5
2017-04-05T02:16:57.708Z,5
2017-04-05T02:17:16.347Z,5
2017-04-05T02:17:35.005Z,5
2017-04-05T02:17:53.644Z,5
2017-04-05T02:18:12.288Z,5
2017-04-05T02:18:30.922Z,5
2017-04-05T02:18:49.559Z,5
2017-04-05T02:19:08.194Z,5
2017-04-05T02:19:26.823Z,5
2017-04-05T02:19:45.459Z,5
2017-04-05T02:20:04.096Z,5
2017-04-05T02:20:22.730Z,5
2017-04-05T02:20:41.366Z,5
2017-04-05T02:21:00.024Z,5
2017-04-05T02:21:18.659Z,5
2017-04-05T02:21:37.293Z,5
2017-04-05T02:21:55.930Z,5
2017-04-05T02:22:14.586Z,5
2017-04-05T02:22:33.228Z,5
2017-04-05T02:22:51.866Z,5
2017-04-05T02:23:10.505Z,5
2017-04-05T02:23:29.140Z,5
2017-04-05T02:23:47.776Z,5
2017-04-05T02:24:06.401Z,5
2017-04-05T02:24:25.065Z,5
2017-04-05T02:24:43.703Z,5
2017-04-05T02:25:02.345Z,5
2017-04-05T02:25:21.024Z,5
2017-04-05T02:25:39.673Z,5
2017-04-05T02:25:58.316Z,5
2017-04-05T02:26:16.950Z,5
2017-04-05T02:26:35.584Z,5
2017-04-05T02:26:54.218Z,5
2017-04-05T02:27:12.852Z,5
2017-04-05T02:27:31.497Z,5
2017-04-05T02:27:50.162Z,5
2017-04-05T02:28:08.797Z,5
2017-04-05T02:28:27.435Z,5
2017-04-05T02:28:46.069Z,5
2017-04-05T02:29:04.699Z,5
2017-04-05T02:29:23.338Z,5
2017-04-05T02:29:41.975Z,5
2017-04-05T02:30:00.613Z,5
2017-04-05T02:30:19.257Z,5
2017-04-05T02:30:37.891Z,5
2017-04-05T02:30:56.522Z,5
2017-04-05T02:31:15.180Z,5
2017-04-05T02:31:33.811Z,5
2017-04-05T02:31:52.448Z,5
2017-04-05T02:32:11.080Z,5
2017-04-05T02:32:29.714Z,5
2017-04-05T02:32:48.369Z,5
2017-04-05T02:33:07.010Z,4.9
2017-04-05T02:33:25.653Z,4.9
2017-04-05T02:33:44.290Z,4.9
2017-04-05T02:34:02.929Z,4.9
2017-04-05T02:34:21.558Z,4.9
2017-04-05T02:34:40.214Z,4.9
2017-04-05T02:34:58.855Z,4.9
2017-04-05T02:35:17.492Z,4.9
2017-04-05T02:35:36.130Z,4.9
2017-04-05T02:35:54.762Z,4.8
2017-04-05T02:36:13.437Z,4.8
2017-04-05T02:36:32.072Z,4.8
2017-04-05T02:36:50.711Z,4.8
2017-04-05T02:37:09.346Z,4.8
2017-04-05T02:37:27.984Z,4.8
2017-04-05T02:37:46.622Z,4.8
2017-04-05T02:38:05.304Z,4.8
2017-04-05T02:38:23.942Z,4.8
2017-04-05T02:38:42.581Z,4.8
2017-04-05T02:39:01.223Z,4.8
2017-04-05T02:39:19.883Z,4.8
2017-04-05T02:39:38.521Z,4.8
2017-04-05T02:39:57.155Z,4.8
2017-04-05T02:40:15.783Z,4.8
2017-04-05T02:40:34.427Z,4.8
2017-04-05T02:40:53.059Z,4.8
2017-04-05T02:41:11.698Z,4.8
2017-04-05T02:41:30.333Z,4.8
2017-04-05T02:41:48.968Z,4.8
2017-04-05T02:42:07.603Z,4.8
2017-04-05T02:42:26.235Z,4.8
2017-04-05T02:42:44.886Z,4.8
2017-04-05T02:43:03.519Z,4.8
2017-04-05T02:43:22.169Z,4.8
2017-04-05T02:43:40.810Z,4.8
2017-04-05T02:43:59.442Z,4.8
2017-04-05T02:44:18.078Z,4.8
2017-04-05T02:44:36.713Z,4.8
2017-04-05T02:44:55.348Z,4.8
2017-04-05T02:45:13.988Z,4.8
2017-04-05T02:45:32.624Z,4.8
2017-04-05T02:45:51.263Z,4.8
2017-04-05T02:46:09.917Z,4.8
2017-04-05T02:46:28.553Z,4.8
2017-04-05T02:46:47.187Z,4.8
2017-04-05T02:47:05.829Z,4.8
2017-04-05T02:47:24.469Z,4.8
2017-04-05T02:47:43.102Z,4.8
2017-04-05T02:48:01.743Z,4.8
2017-04-05T02:48:20.387Z,4.8
2017-04-05T02:48:39.057Z,4.8
2017-04-05T02:48:57.693Z,4.8
2017-04-05T02:49:16.334Z,4.8
2017-04-05T02:49:34.997Z,4.8
2017-04-05T02:49:53.633Z,4.8
2017-04-05T02:50:12.268Z,4.8
2017-04-05T02:50:30.901Z,4.8
2017-04-05T02:50:49.531Z,4.8
2017-04-05T02:51:08.168Z,4.8
2017-04-05T02:51:26.803Z,4.8
2017-04-05T02:51:45.436Z,4.8
2017-04-05T02:52:04.068Z,4.8
2017-04-05T02:52:22.702Z,4.9
2017-04-05T02:52:41.340Z,4.9
2017-04-05T02:53:00.001Z,4.9
2017-04-05T02:53:18.638Z,4.9
2017-04-05T02:53:37.272Z,4.9
2017-04-05T02:53:55.921Z,4.9
2017-04-05T02:54:14.554Z,4.9
2017-04-05T02:54:33.198Z,4.9
2017-04-05T02:54:51.829Z,4.9
2017-04-05T02:55:10.465Z,4.9
2017-04-05T02:55:29.105Z,4.9
2017-04-05T02:55:47.764Z,4.9
2017-04-05T02:56:06.404Z,4.9
2017-04-05T02:56:25.067Z,4.9
2017-04-05T02:56:43.699Z,4.9
2017-04-05T02:57:02.335Z,4.9
2017-04-05T02:57:20.968Z,4.9
2017-04-05T02:57:39.600Z,4.9
2017-04-05T02:57:58.234Z,4.8
2017-04-05T02:58:16.869Z,4.9
2017-04-05T02:58:35.502Z,4.8
2017-04-05T02:58:54.137Z,4.8
2017-04-05T02:59:12.800Z,4.8
2017-04-05T02:59:31.438Z,4.8
2017-04-05T02:59:50.097Z,4.8
2017-04-05T03:00:08.731Z,4.8
2017-04-05T03:00:27.362Z,4.8
2017-04-05T03:00:45.997Z,4.8
2017-04-05T03:01:04.626Z,4.8
2017-04-05T03:01:23.267Z,4.8
2017-04-05T03:01:41.932Z,4.8
2017-04-05T03:02:00.576Z,4.8
2017-04-05T03:02:19.214Z,4.8
2017-04-05T03:02:37.858Z,4.8
2017-04-05T03:02:56.499Z,4.8
2017-04-05T03:03:15.134Z,4.8
2017-04-05T03:03:33.767Z,4.8
2017-04-05T03:03:52.404Z,4.8
2017-04-05T03:04:11.039Z,4.7
2017-04-05T03:04:29.685Z,4.7
2017-04-05T03:04:48.352Z,4.7
2017-04-05T03:05:06.991Z,4.7
2017-04-05T03:05:25.621Z,4.7
2017-04-05T03:05:44.264Z,4.7
2017-04-05T03:06:02.902Z,4.7
2017-04-05T03:06:21.538Z,4.6
2017-04-05T03:06:40.177Z,4.7
2017-04-05T03:06:58.814Z,4.6
2017-04-05T03:07:17.448Z,4.6
2017-04-05T03:07:36.091Z,4.6
2017-04-05T03:07:54.743Z,4.6
2017-04-05T03:08:13.381Z,4.6
2017-04-05T03:08:32.019Z,4.6
2017-04-05T03:08:50.662Z,4.6
2017-04-05T03:09:09.300Z,4.6
2017-04-05T03:09:27.938Z,4.6
2017-04-05T03:09:46.596Z,4.6
2017-04-05T03:10:05.234Z,4.6
2017-04-05T03:10:23.866Z,4.6
2017-04-05T03:10:42.505Z,4.6
2017-04-05T03:11:01.170Z,4.6
2017-04-05T03:11:19.830Z,4.6
2017-04-05T03:11:38.465Z,4.6
2017-04-05T03:11:57.102Z,4.6
2017-04-05T03:12:15.744Z,4.6
2017-04-05T03:12:34.379Z,4.6
2017-04-05T03:12:53.015Z,4.6
2017-04-05T03:13:11.672Z,4.6
2017-04-05T03:13:30.310Z,4.6
2017-04-05T03:13:48.946Z,4.6
2017-04-05T03:14:07.579Z,4.6
2017-04-05T03:14:26.212Z,4.6
2017-04-05T03:14:44.878Z,4.6
2017-04-05T03:15:03.518Z,4.6
2017-04-05T03:15:22.157Z,4.6
2017-04-05T03:15:40.788Z,4.6
2017-04-05T03:15:59.425Z,4.6
2017-04-05T03:16:18.061Z,4.6
2017-04-05T03:16:36.704Z,4.5
2017-04-05T03:16:55.346Z,4.5
2017-04-05T03:17:13.981Z,4.5
2017-04-05T03:17:32.616Z,4.5
2017-04-05T03:17:51.250Z,4.5
2017-04-05T03:18:09.909Z,4.5
2017-04-05T03:18:28.548Z,4.5
2017-04-05T03:18:47.181Z,4.5
2017-04-05T03:19:05.816Z,4.5
2017-04-05T03:19:24.453Z,4.5
2017-04-05T03:19:43.099Z,4.6
2017-04-05T03:20:01.737Z,4.5
2017-04-05T03:20:20.394Z,4.6
2017-04-05T03:20:39.034Z,4.6
2017-04-05T03:20:57.674Z,4.6
2017-04-05T03:21:16.308Z,4.6
2017-04-05T03:21:34.970Z,4.6
2017-04-05T03:21:53.601Z,4.6
2017-04-05T03:22:12.237Z,4.6
2017-04-05T03:22:30.872Z,4.6
2017-04-05T03:22:49.506Z,4.6
2017-04-05T03:23:08.142Z,4.6
2017-04-05T03:23:26.776Z,4.6
2017-04-05T03:23:45.412Z,4.7
2017-04-05T03:24:04.047Z,4.7
2017-04-05T03:24:22.686Z,4.7
2017-04-05T03:24:41.319Z,4.7
2017-04-05T03:24:59.977Z,4.7
2017-04-05T03:25:18.619Z,4.7
2017-04-05T03:25:37.286Z,4.8
2017-04-05T03:25:55.921Z,4.8
2017-04-05T03:26:14.569Z,4.8
2017-04-05T03:26:33.240Z,4.8
2017-04-05T03:26:51.880Z,4.8
2017-04-05T03:27:10.524Z,4.8
2017-04-05T03:27:29.160Z,4.8
2017-04-05T03:27:47.797Z,4.8
2017-04-05T03:28:06.433Z,4.8
2017-04-05T03:28:25.071Z,4.8
2017-04-05T03:28:43.708Z,4.8
2017-04-05T03:29:02.342Z,4.8
2017-04-05T03:29:20.979Z,4.8
2017-04-05T03:29:39.622Z,4.8
2017-04-05T03:29:58.279Z,4.8
2017-04-05T03:30:16.911Z,4.8
2017-04-05T03:30:35.544Z,4.8
2017-04-05T03:30:54.197Z,4.8
2017-04-05T03:31:12.833Z,4.8
2017-04-05T03:31:31.469Z,4.8
2017-04-05T03:31:50.107Z,4.8
2017-04-05T03:32:08.738Z,4.9
2017-04-05T03:32:27.373Z,4.9
2017-04-05T03:32:46.012Z,4.9
2017-04-05T03:33:04.663Z,4.9
2017-04-05T03:33:23.304Z,4.9
2017-04-05T03:33:41.936Z,4.9
2017-04-05T03:34:00.565Z,4.9
2017-04-05T03:34:19.200Z,4.9
2017-04-05T03:34:37.836Z,4.9
2017-04-05T03:34:56.472Z,4.9
2017-04-05T03:35:15.104Z,4.9
2017-04-05T03:35:33.740Z,4.9
2017-04-05T03:35:52.377Z,5
2017-04-05T03:36:11.022Z,5
2017-04-05T03:36:29.679Z,5
2017-04-05T03:36:48.317Z,5
2017-04-05T03:37:06.959Z,5
2017-04-05T03:37:25.594Z,5
2017-04-05T03:37:44.228Z,5
2017-04-05T03:38:02.866Z,5
2017-04-05T03:38:21.498Z,5
2017-04-05T03:38:40.133Z,5
2017-04-05T03:38:58.767Z,5
2017-04-05T03:39:17.404Z,5
2017-04-05T03:39:36.039Z,5
2017-04-05T03:39:54.688Z,5
2017-04-05T03:40:13.326Z,5
2017-04-05T03:40:31.964Z,5
2017-04-05T03:40:50.599Z,5
2017-04-05T03:41:09.232Z,5
2017-04-05T03:41:27.917Z,5
2017-04-05T03:41:46.557Z,5
2017-04-05T03:42:05.188Z,5
2017-04-05T03:42:23.823Z,5
2017-04-05T03:42:42.458Z,5
2017-04-05T03:43:01.091Z,5
2017-04-05T03:43:19.754Z,5
2017-04-05T03:43:38.397Z,5
2017-04-05T03:43:57.028Z,5
2017-04-05T03:44:15.662Z,5
2017-04-05T03:44:34.302Z,5
2017-04-05T03:44:52.942Z,5
2017-04-05T03:45:11.582Z,5
2017-04-05T03:45:30.221Z,5
2017-04-05T03:45:48.859Z,5
2017-04-05T03:46:07.495Z,5
2017-04-05T03:46:26.124Z,5
2017-04-05T03:46:44.796Z,5
2017-04-05T03:47:03.432Z,5
2017-04-05T03:47:22.063Z,5
2017-04-05T03:47:40.695Z,5
2017-04-05T03:47:59.330Z,5
2017-04-05T03:48:17.970Z,5
2017-04-05T03:48:36.606Z,5
2017-04-05T03:48:55.241Z,5
2017-04-05T03:49:13.889Z,5
2017-04-05T03:49:32.520Z,5
2017-04-05T03:49:51.155Z,5
2017-04-05T03:50:09.820Z,5
2017-04-05T03:50:28.457Z,5
2017-04-05T03:50:47.091Z,5
2017-04-05T03:51:05.728Z,5
2017-04-05T03:51:24.365Z,5
2017-04-05T03:51:43.002Z,5.1
2017-04-05T03:52:01.661Z,5.1
2017-04-05T03:52:20.305Z,5.1
2017-04-05T03:52:38.948Z,5.1
2017-04-05T03:52:57.586Z,5.1
2017-04-05T03:53:16.217Z,5.1
2017-04-05T03:53:34.874Z,5.1
2017-04-05T03:53:53.517Z,5.1
2017-04-05T03:54:12.154Z,5.1
2017-04-05T03:54:30.783Z,5.1
2017-04-05T03:54:49.417Z,5.1
2017-04-05T03:55:08.087Z,5.1
2017-04-05T03:55:26.723Z,5.1
2017-04-05T03:55:45.359Z,5.1
2017-04-05T03:56:03.988Z,5.1
2017-04-05T03:56:22.619Z,5.1
2017-04-05T03:56:41.263Z,5.1
2017-04-05T03:56:59.910Z,5
2017-04-05T03:57:18.565Z,5
2017-04-05T03:57:37.208Z,5
2017-04-05T03:57:55.846Z,5
2017-04-05T03:58:14.493Z,5
2017-04-05T03:58:33.156Z,5
2017-04-05T03:58:51.788Z,5
2017-04-05T03:59:10.423Z,5
2017-04-05T03:59:29.063Z,5.1
2017-04-05T03:59:47.701Z,5.1
2017-04-05T04:00:06.339Z,5.1
2017-04-05T04:00:24.971Z,5.1
2017-04-05T04:00:43.608Z,5.1
2017-04-05T04:01:02.251Z,5.1
2017-04-05T04:01:20.888Z,5.1
2017-04-05T04:01:39.543Z,5.1
2017-04-05T04:01:58.178Z,5.1
2017-04-05T04:02:16.813Z,5.1
2017-04-05T04:02:35.476Z,5.1
2017-04-05T04:02:54.113Z,5.1
2017-04-05T04:03:12.752Z,5.1
2017-04-05T04:03:31.384Z,5.1
2017-04-05T04:03:50.015Z,5.1
2017-04-05T04:04:08.651Z,5.1
2017-04-05T04:04:27.292Z,5.1
2017-04-05T04:04:45.929Z,5.1
2017-04-05T04:05:04.587Z,5.1
2017-04-05T04:05:23.224Z,5.1
2017-04-05T04:05:41.860Z,5.1
2017-04-05T04:06:00.504Z,5.1
2017-04-05T04:06:19.145Z,5.1
2017-04-05T04:06:37.778Z,5.1
2017-04-05T04:06:56.416Z,5.1
2017-04-05T04:07:15.055Z,5.1
2017-04-05T04:07:33.689Z,5.2
2017-04-05T04:07:52.330Z,5.2
2017-04-05T04:08:10.965Z,5.2
2017-04-05T04:08:29.635Z,5.2
2017-04-05T04:08:48.267Z,5.2
2017-04-05T04:09:06.908Z,5.2
2017-04-05T04:09:25.544Z,5.2
2017-04-05T04:09:44.179Z,5.2
2017-04-05T04:10:02.814Z,5.3
2017-04-05T04:10:21.455Z,5.3
2017-04-05T04:10:40.090Z,5.3
2017-04-05T04:10:58.724Z,5.3
2017-04-05T04:11:17.361Z,5.3
2017-04-05T04:11:35.998Z,5.3
2017-04-05T04:11:54.680Z,5.3
2017-04-05T04:12:13.317Z,5.3
2017-04-05T04:12:31.954Z,5.3
2017-04-05T04:12:50.596Z,5.3
2017-04-05T04:13:09.264Z,5.3
2017-04-05T04:13:27.905Z,5.3
2017-04-05T04:13:46.546Z,5.4
2017-04-05T04:14:05.185Z,5.4
2017-04-05T04:14:23.823Z,5.4
2017-04-05T04:14:42.457Z,5.4
2017-04-05T04:15:01.091Z,5.4
2017-04-05T04:15:19.752Z,5.4
2017-04-05T04:15:38.385Z,5.4
2017-04-05T04:15:57.020Z,5.4
2017-04-05T04:16:15.654Z,5.4
2017-04-05T04:16:34.283Z,5.4
2017-04-05T04:16:52.916Z,5.4
2017-04-05T04:17:11.552Z,5.4
2017-04-05T04:17:30.187Z,5.4
2017-04-05T04:17:48.822Z,5.4
2017-04-05T04:18:07.465Z,5.4
2017-04-05T04:18:26.100Z,5.4
2017-04-05T04:18:44.766Z,5.4
2017-04-05T04:19:03.400Z,5.4
2017-04-05T04:19:22.034Z,5.4
2017-04-05T04:19:40.672Z,5.4
2017-04-05T04:19:59.306Z,5.3
2017-04-05T04:20:17.977Z,5.3
2017-04-05T04:20:36.615Z,5.3
2017-04-05T04:20:55.251Z,5.4
2017-04-05T04:21:13.881Z,5.4
2017-04-05T04:21:32.523Z,5.4